Time;durP1;ratioP1;P1;durP2;ratioP2;P2;SDS_P1;SDS_P2;PMS_P1;PMS_P2;Temp;Humidity;BMP_temperature;BMP_pressure;BME280_temperature;BME280_humidity;BME280_pressure;Samples;Min_cycle;Max_cycle;Signal;HPM_P1;HPM_P2
2021/05/12 00:00:55;;;;;;;11.88;2.63;;;10.40;99.90;;;10.06;90.80;100914.41;4167198;28;20026;-71
2021/05/12 00:02:56;;;;;;;15.07;2.50;;;10.40;99.90;;;10.02;90.19;100898.06;4157537;28;20044;-71
2021/05/12 00:04:57;;;;;;;13.68;4.00;;;10.40;99.90;;;10.01;90.78;100906.94;4167459;28;20426;-71
2021/05/12 00:06:58;;;;;;;9.48;2.30;;;10.40;99.90;;;9.74;91.56;100897.25;4154715;28;20041;-71
2021/05/12 00:08:58;;;;;;;13.65;2.92;;;10.30;99.90;;;9.95;89.78;100884.63;4166932;28;20033;-71
2021/05/12 00:10:59;;;;;;;8.13;1.92;;;10.30;99.90;;;9.82;90.51;100886.81;4167373;28;20516;-71
2021/05/12 00:13:00;;;;;;;11.70;2.83;;;10.20;99.90;;;9.71;90.75;100881.72;4169088;28;20034;-71
2021/05/12 00:15:06;;;;;;;11.75;2.85;;;10.20;99.90;;;9.74;90.71;100883.22;4167142;28;20029;-71
2021/05/12 00:17:09;;;;;;;12.93;3.25;;;10.10;99.90;;;9.59;91.48;100890.81;4167719;28;20029;-71
2021/05/12 00:19:10;;;;;;;9.75;3.17;;;10.00;99.90;;;9.75;91.34;100893.63;4168428;28;20027;-71
2021/05/12 00:21:21;;;;;;;12.43;3.53;;;10.00;99.90;;;9.72;91.90;100886.03;4177787;28;20063;-71
2021/05/12 00:23:28;;;;;;;12.23;2.95;;;10.00;99.90;;;9.53;92.37;100880.84;4170796;28;20021;-71
2021/05/12 00:25:30;;;;;;;6.40;2.20;;;9.90;99.90;;;9.39;93.27;100873.44;4165023;28;20037;-71
2021/05/12 00:27:31;;;;;;;7.88;2.20;;;9.70;99.90;;;9.46;92.44;100877.16;4160120;28;20105;-71
2021/05/12 00:29:33;;;;;;;9.10;3.28;;;9.80;99.90;;;9.39;92.67;100874.28;4168168;28;20033;-71
2021/05/12 00:31:34;;;;;;;8.13;2.55;;;9.70;99.90;;;9.42;92.44;100875.78;4167128;28;20057;-71
2021/05/12 00:33:35;;;;;;;8.10;2.28;;;9.60;99.90;;;9.35;92.74;100867.63;4156788;28;20030;-71
2021/05/12 00:35:36;;;;;;;7.68;3.28;;;9.60;99.90;;;9.40;92.82;100869.84;4168097;28;20408;-71
2021/05/12 00:37:37;;;;;;;7.78;1.80;;;9.50;99.90;;;9.44;92.52;100863.28;4168505;28;20100;-71
2021/05/12 00:39:38;;;;;;;8.30;2.67;;;9.70;99.90;;;9.53;93.46;100862.41;4168400;28;20657;-71
2021/05/12 00:41:41;;;;;;;11.13;2.15;;;9.70;99.90;;;9.47;92.22;100862.19;4168581;28;20018;-71
2021/05/12 00:43:41;;;;;;;8.88;2.40;;;9.70;99.90;;;9.44;92.57;100868.56;4167027;28;20056;-71
2021/05/12 00:45:42;;;;;;;7.82;2.05;;;9.70;99.90;;;9.62;91.70;100863.34;4162732;28;20088;-71
2021/05/12 00:47:48;;;;;;;7.43;2.55;;;9.80;99.90;;;9.67;92.84;100859.31;4168224;28;20404;-71
2021/05/12 00:49:49;;;;;;;7.57;2.20;;;9.80;99.90;;;9.62;92.56;100853.63;4168414;28;20034;-71
2021/05/12 00:51:50;;;;;;;9.45;2.50;;;9.90;99.90;;;9.60;92.88;100852.97;4168294;28;20057;-71
2021/05/12 00:53:51;;;;;;;10.35;3.15;;;9.90;99.90;;;9.76;92.20;100849.69;4168273;28;20029;-71
2021/05/12 00:55:52;;;;;;;6.40;2.17;;;10.00;99.90;;;9.86;92.25;100851.28;4168551;28;20085;-71
2021/05/12 00:57:53;;;;;;;6.45;2.55;;;10.00;99.90;;;9.71;93.07;100834.31;4171488;28;20029;-71
2021/05/12 00:59:55;;;;;;;8.65;3.20;;;10.10;99.90;;;9.88;92.44;100844.06;4170161;28;20036;-71
2021/05/12 01:01:55;;;;;;;8.32;2.83;;;10.10;99.90;;;9.87;91.86;100825.75;4165715;28;20104;-71
2021/05/12 01:03:56;;;;;;;10.95;2.30;;;10.20;99.90;;;10.06;91.39;100830.06;4171380;28;20025;-71
2021/05/12 01:05:59;;;;;;;8.10;2.30;;;10.30;99.90;;;9.89;92.26;100814.09;4170227;28;20059;-71
2021/05/12 01:08:05;;;;;;;9.35;3.15;;;10.30;99.90;;;9.84;92.66;100805.81;4170061;28;20021;-71
2021/05/12 01:10:07;;;;;;;8.60;2.90;;;10.30;99.90;;;10.05;92.79;100816.06;4164991;28;20463;-71
2021/05/12 01:12:08;;;;;;;6.22;2.05;;;10.40;99.90;;;10.06;92.67;100814.25;4168274;28;20099;-71
2021/05/12 01:14:09;;;;;;;5.95;2.42;;;10.40;99.90;;;10.10;92.34;100811.16;4169673;28;20040;-71
2021/05/12 01:16:11;;;;;;;6.63;2.15;;;10.50;99.90;;;10.16;92.24;100815.03;4170160;28;20049;-71
2021/05/12 01:18:22;;;;;;;5.95;2.58;;;10.50;99.90;;;10.16;92.21;100807.13;4165018;28;20022;-71
2021/05/12 01:20:23;;;;;;;8.20;1.98;;;10.50;99.90;;;10.16;92.59;100799.19;4171072;28;20388;-71
2021/05/12 01:22:23;;;;;;;5.07;1.95;;;10.60;99.90;;;10.28;92.17;100798.00;4170111;28;20026;-71
2021/05/12 01:24:25;;;;;;;5.43;1.98;;;10.50;99.90;;;10.22;92.50;100801.22;4163954;28;20112;-71
2021/05/12 01:26:26;;;;;;;6.07;2.30;;;10.60;99.90;;;10.30;91.04;100796.06;4169930;28;20113;-70
2021/05/12 01:28:33;;;;;;;8.18;2.97;;;10.50;99.90;;;10.11;91.54;100780.34;4169177;28;20483;-71
2021/05/12 01:30:34;;;;;;;6.53;2.53;;;10.60;99.90;;;10.04;92.50;100774.88;4160282;28;20440;-71
2021/05/12 01:32:37;;;;;;;10.30;2.42;;;10.50;99.90;;;10.01;93.26;100780.44;4171034;28;20053;-71
2021/05/12 01:34:38;;;;;;;8.23;2.22;;;10.60;99.90;;;10.10;92.83;100789.22;4169588;28;20050;-71
2021/05/12 01:36:39;;;;;;;7.35;2.30;;;10.50;99.90;;;10.06;93.01;100786.09;4157002;28;20041;-71
2021/05/12 01:38:43;;;;;;;7.82;2.28;;;10.50;99.90;;;9.88;93.67;100770.28;4160368;28;20029;-71
2021/05/12 01:40:44;;;;;;;8.38;2.70;;;10.50;99.90;;;10.02;93.97;100784.72;4170923;28;20374;-71
2021/05/12 01:42:45;;;;;;;5.63;2.40;;;10.50;99.90;;;10.10;93.25;100776.06;4170732;28;20038;-71
2021/05/12 01:44:46;;;;;;;7.35;2.53;;;10.50;99.90;;;10.18;93.69;100774.38;4170729;28;20088;-71
2021/05/12 01:46:47;;;;;;;4.82;1.92;;;10.50;99.90;;;10.17;93.39;100766.59;4170855;28;20216;-71
2021/05/12 01:48:48;;;;;;;10.02;3.20;;;10.50;99.90;;;10.19;93.52;100762.00;4170737;28;20033;-71
2021/05/12 01:50:50;;;;;;;6.82;2.58;;;10.60;99.90;;;10.29;93.06;100770.66;4170793;28;20037;-71
2021/05/12 01:52:51;;;;;;;7.20;2.33;;;10.60;99.90;;;10.33;92.88;100764.94;4169634;28;20025;-70
2021/05/12 01:54:52;;;;;;;5.85;2.42;;;10.60;99.90;;;10.44;91.87;100769.13;4160212;28;20033;-71
2021/05/12 01:56:53;;;;;;;6.43;2.22;;;10.70;99.90;;;10.28;92.15;100740.00;4170721;28;20515;-71
2021/05/12 01:58:54;;;;;;;5.57;2.53;;;10.70;99.90;;;10.43;92.23;100759.53;4169431;28;20025;-71
2021/05/12 02:00:56;;;;;;;6.63;2.53;;;10.70;99.90;;;10.34;91.82;100763.94;4168178;28;20036;-71
2021/05/12 02:02:58;;;;;;;5.78;2.35;;;10.70;99.90;;;10.00;91.94;100737.44;4159618;28;20067;-71
2021/05/12 02:04:59;;;;;;;5.05;2.00;;;10.60;99.90;;;10.16;91.47;100754.41;4170517;28;20021;-70
2021/05/12 02:06:59;;;;;;;7.93;2.78;;;10.60;99.90;;;10.16;91.14;100757.03;4170120;28;20036;-71
2021/05/12 02:09:06;;;;;;;7.25;2.50;;;10.60;99.90;;;9.95;92.76;100752.88;4170398;28;20021;-71
2021/05/12 02:11:07;;;;;;;5.78;2.35;;;10.50;99.90;;;9.82;93.17;100747.19;4170551;28;20127;-72
2021/05/12 02:13:09;;;;;;;8.20;2.50;;;10.50;99.90;;;9.90;93.09;100752.53;4170476;28;20033;-71
2021/05/12 02:15:12;;;;;;;4.55;2.25;;;10.40;99.90;;;9.92;93.33;100745.28;4170115;28;20026;-71
2021/05/12 02:17:13;;;;;;;4.65;1.80;;;10.40;99.90;;;9.85;94.51;100743.41;4169003;28;20026;-71
2021/05/12 02:19:14;;;;;;;6.63;2.55;;;10.40;99.90;;;10.00;94.58;100753.25;4158818;28;20041;-71
2021/05/12 02:21:15;;;;;;;6.45;2.63;;;10.40;99.90;;;10.09;94.95;100751.53;4163135;28;20021;-72
2021/05/12 02:23:18;;;;;;;5.25;2.33;;;10.50;99.90;;;10.06;95.45;100736.03;4170342;28;20036;-72
2021/05/12 02:25:19;;;;;;;5.38;2.63;;;10.50;99.90;;;10.18;94.65;100742.75;4169059;28;20045;-72
2021/05/12 02:27:20;;;;;;;4.80;3.45;;;10.50;99.90;;;10.05;94.87;100738.81;4170331;28;20115;-72
2021/05/12 02:29:21;;;;;;;8.40;2.70;;;10.50;99.90;;;9.98;95.56;100736.78;4170019;28;20025;-71
2021/05/12 02:31:22;;;;;;;5.90;2.72;;;10.40;99.90;;;10.01;95.64;100731.19;4170125;28;20493;-72
2021/05/12 02:33:23;;;;;;;6.35;2.00;;;10.50;99.90;;;10.05;95.15;100728.25;4170006;28;20056;-71
2021/05/12 02:35:25;;;;;;;4.63;2.55;;;10.40;99.90;;;10.00;95.18;100720.81;4169937;28;20055;-71
2021/05/12 02:37:27;;;;;;;8.20;2.72;;;10.40;99.90;;;9.97;95.15;100729.03;4168877;28;20029;-71
2021/05/12 02:39:29;;;;;;;5.70;1.98;;;10.40;99.90;;;9.91;95.41;100712.03;4166021;28;20537;-71
2021/05/12 02:41:30;;;;;;;6.75;2.35;;;10.30;99.90;;;9.92;94.24;100723.38;4168653;28;20036;-71
2021/05/12 02:43:31;;;;;;;5.18;2.40;;;10.30;99.90;;;9.70;94.03;100703.63;4158404;28;20025;-71
2021/05/12 02:45:33;;;;;;;6.07;1.92;;;10.20;99.90;;;9.80;93.77;100720.16;4168883;28;20021;-71
2021/05/12 02:47:35;;;;;;;6.35;2.22;;;10.10;99.90;;;9.52;94.32;100713.31;4170108;28;20034;-71
2021/05/12 02:49:37;;;;;;;5.82;2.28;;;10.00;99.90;;;9.36;95.65;100706.06;4170206;28;20392;-71
2021/05/12 02:51:38;;;;;;;6.93;2.28;;;9.90;99.90;;;9.30;95.51;100690.03;4168946;28;20036;-71
2021/05/12 02:53:39;;;;;;;7.70;2.78;;;9.80;99.90;;;9.49;94.84;100704.88;4168675;28;20030;-71
2021/05/12 02:55:40;;;;;;;7.45;2.10;;;9.80;99.90;;;9.44;95.35;100713.22;4168653;28;20037;-71
2021/05/12 02:57:41;;;;;;;5.50;2.60;;;9.70;99.90;;;9.44;95.00;100690.34;4169679;28;20033;-71
2021/05/12 02:59:42;;;;;;;5.15;2.13;;;9.70;99.90;;;9.44;94.95;100697.41;4168399;28;20041;-71
2021/05/12 03:01:43;;;;;;;10.63;3.88;;;9.70;99.90;;;9.29;95.78;100693.63;4169751;28;20546;-71
2021/05/12 03:03:44;;;;;;;7.65;3.35;;;9.70;99.90;;;9.27;96.47;100685.06;4168513;28;20108;-71
2021/05/12 03:05:44;;;;;;;6.32;2.17;;;9.70;99.90;;;9.46;96.66;100698.13;4169803;28;20065;-71
2021/05/12 03:07:45;;;;;;;6.80;3.60;;;9.70;99.90;;;9.51;96.52;100702.91;4169650;28;20496;-71
2021/05/12 03:09:46;;;;;;;12.55;3.65;;;9.70;99.90;;;9.53;96.11;100698.34;4169559;28;20377;-71
2021/05/12 03:11:47;;;;;;;9.57;3.25;;;9.80;99.90;;;9.66;96.52;100698.78;4169588;28;20610;-71
2021/05/12 03:13:48;;;;;;;6.85;3.10;;;9.80;99.90;;;9.59;96.47;100690.66;4169215;28;20083;-71
2021/05/12 03:15:49;;;;;;;7.50;2.97;;;10.00;99.90;;;9.66;96.38;100698.78;4168374;28;20031;-71
2021/05/12 03:17:52;;;;;;;8.05;2.67;;;10.00;99.90;;;9.70;96.21;100692.25;4162376;28;20393;-71
2021/05/12 03:19:53;;;;;;;5.70;2.73;;;10.10;99.90;;;9.79;95.76;100680.78;4167682;28;20029;-71
2021/05/12 03:21:57;;;;;;;7.50;2.08;;;10.10;99.90;;;9.80;95.45;100670.09;4168991;28;20407;-72
2021/05/12 03:23:58;;;;;;;5.65;2.10;;;10.20;99.90;;;9.86;96.01;100692.38;4168221;28;20064;-71
2021/05/12 03:25:59;;;;;;;6.25;2.28;;;10.20;99.90;;;9.80;95.35;100677.16;4162975;28;20033;-71
2021/05/12 03:28:00;;;;;;;9.15;2.83;;;10.20;99.90;;;9.86;95.40;100689.72;4168332;28;20026;-71
2021/05/12 03:30:04;;;;;;;8.35;2.08;;;10.20;99.90;;;9.80;95.70;100688.53;4168984;28;20025;-71
2021/05/12 03:32:05;;;;;;;6.65;2.60;;;10.20;99.90;;;9.83;95.70;100676.84;4169314;28;20403;-72
2021/05/12 03:34:07;;;;;;;7.10;2.70;;;10.20;99.90;;;9.74;96.16;100661.97;4168932;28;20046;-71
2021/05/12 03:36:09;;;;;;;5.97;2.55;;;10.20;99.90;;;9.71;95.98;100671.00;4168052;28;20037;-72
2021/05/12 03:38:12;;;;;;;8.90;3.20;;;10.20;99.90;;;9.73;96.89;100666.44;4168684;28;20022;-71
2021/05/12 03:40:14;;;;;;;6.88;2.38;;;10.20;99.90;;;9.78;96.59;100658.88;4169335;28;20469;-71
2021/05/12 03:42:15;;;;;;;6.25;2.75;;;10.20;99.90;;;9.87;96.89;100665.88;4169345;28;20021;-71
2021/05/12 03:44:16;;;;;;;8.90;2.67;;;10.20;99.90;;;9.94;96.31;100651.13;4169028;28;20080;-71
2021/05/12 03:46:17;;;;;;;10.23;2.70;;;10.30;99.90;;;9.95;96.06;100647.47;4168909;28;20028;-71
2021/05/12 03:48:18;;;;;;;7.72;2.80;;;10.30;99.90;;;10.02;96.52;100655.59;4169115;28;20120;-71
2021/05/12 03:50:21;;;;;;;7.32;3.13;;;10.40;99.90;;;9.98;96.45;100647.19;4168974;28;20082;-71
2021/05/12 03:52:21;;;;;;;6.28;2.03;;;10.30;99.90;;;9.98;96.51;100649.81;4169152;28;20097;-71
2021/05/12 03:54:24;;;;;;;8.70;2.20;;;10.30;99.90;;;9.94;96.29;100643.22;4168734;28;20041;-71
2021/05/12 03:56:25;;;;;;;6.82;3.20;;;10.40;99.90;;;9.96;96.32;100640.41;4169172;28;20036;-71
2021/05/12 03:58:26;;;;;;;5.75;2.30;;;10.30;99.90;;;9.92;96.91;100636.41;4168742;28;20018;-71
2021/05/12 04:00:27;;;;;;;7.65;2.17;;;10.40;99.90;;;9.93;96.12;100636.28;4167580;28;20022;-71
2021/05/12 04:02:28;;;;;;;8.55;2.10;;;10.40;99.90;;;9.93;96.79;100628.38;4167245;28;20078;-71
2021/05/12 04:04:29;;;;;;;4.43;2.60;;;10.40;99.90;;;9.94;96.63;100631.84;4169128;28;20439;-71
2021/05/12 04:06:29;;;;;;;4.47;2.28;;;10.30;99.90;;;9.95;96.37;100623.78;4168759;28;20108;-71
2021/05/12 04:08:30;;;;;;;9.20;2.22;;;10.30;99.90;;;9.91;96.22;100617.19;4168721;28;20456;-71
2021/05/12 04:10:32;;;;;;;5.22;1.98;;;10.30;99.90;;;9.97;96.37;100619.16;4167204;28;20033;-71
2021/05/12 04:12:33;;;;;;;7.50;3.22;;;10.30;99.90;;;9.93;96.08;100617.84;4167328;28;20056;-71
2021/05/12 04:14:34;;;;;;;8.63;2.72;;;10.30;99.90;;;9.87;96.20;100615.00;4167151;28;20515;-71
2021/05/12 04:16:35;;;;;;;5.43;2.00;;;10.30;99.90;;;9.88;96.41;100621.91;4151008;28;20038;-72
2021/05/12 04:18:36;;;;;;;6.45;2.55;;;10.30;99.90;;;9.90;96.23;100620.78;4184004;28;20017;-71
2021/05/12 04:20:37;;;;;;;5.55;2.75;;;10.30;99.90;;;9.88;96.44;100621.91;4155060;28;20435;-71
2021/05/12 04:22:39;;;;;;;7.13;2.50;;;10.30;99.90;;;10.00;96.33;100637.28;4168759;28;20377;-71
2021/05/12 04:24:40;;;;;;;4.32;2.50;;;10.30;99.90;;;9.89;96.36;100613.84;4167270;28;20079;-71
2021/05/12 04:26:41;;;;;;;7.47;2.65;;;10.40;99.90;;;10.02;96.56;100622.19;4167081;28;20036;-71
2021/05/12 04:28:42;;;;;;;7.25;2.90;;;10.40;99.90;;;9.98;96.31;100617.34;4168454;28;20026;-71
2021/05/12 04:30:43;;;;;;;9.18;2.45;;;10.50;99.90;;;10.24;96.05;100622.66;4168276;28;20076;-71
2021/05/12 04:32:46;;;;;;;7.53;2.90;;;10.50;99.90;;;10.27;95.03;100623.19;4168343;28;20053;-71
2021/05/12 04:34:47;;;;;;;7.03;2.22;;;10.50;99.90;;;10.25;95.38;100619.03;4168072;28;20060;-71
2021/05/12 04:36:48;;;;;;;8.05;2.05;;;10.60;99.90;;;10.21;94.94;100615.91;4168389;28;20037;-71
2021/05/12 04:38:48;;;;;;;8.20;2.47;;;10.60;99.90;;;10.23;94.77;100618.38;4168379;28;20037;-71
2021/05/12 04:40:49;;;;;;;7.38;2.38;;;10.60;99.90;;;10.19;95.77;100614.38;4168361;28;20045;-71
2021/05/12 04:42:50;;;;;;;5.72;2.20;;;10.60;99.90;;;10.20;95.53;100618.69;4155028;28;20030;-71
2021/05/12 04:44:52;;;;;;;6.63;2.20;;;10.60;99.90;;;10.21;95.39;100601.91;4168117;28;20117;-71
2021/05/12 04:46:56;;;;;;;7.07;2.25;;;10.60;99.90;;;10.20;96.19;100608.97;4150976;28;20132;-71
2021/05/12 04:48:57;;;;;;;6.05;2.22;;;10.60;99.90;;;10.25;96.27;100596.13;4183675;28;20025;-71
2021/05/12 04:50:59;;;;;;;6.85;2.05;;;10.70;99.90;;;10.29;96.08;100600.13;4166901;28;20120;-71
2021/05/12 04:53:01;;;;;;;6.03;2.03;;;10.70;99.90;;;10.31;96.23;100608.69;4168579;28;20030;-71
2021/05/12 04:55:03;;;;;;;5.72;2.33;;;10.70;99.90;;;10.30;96.56;100614.97;4168186;28;20465;-71
2021/05/12 04:57:04;;;;;;;7.00;2.22;;;10.70;99.90;;;10.24;96.33;100596.31;4168224;28;20077;-71
2021/05/12 04:59:05;;;;;;;5.60;2.10;;;10.70;99.90;;;10.27;96.38;100598.63;4167879;28;20481;-71
2021/05/12 05:01:06;;;;;;;6.40;2.05;;;10.70;99.90;;;10.30;96.56;100604.41;4167069;28;20064;-71
2021/05/12 05:03:08;;;;;;;6.15;2.50;;;10.70;99.90;;;10.29;96.21;100612.47;4168163;28;20030;-71
2021/05/12 05:05:12;;;;;;;7.25;2.55;;;10.70;99.90;;;10.19;96.95;100580.94;4168187;28;20034;-71
2021/05/12 05:07:13;;;;;;;6.28;2.03;;;10.70;99.90;;;10.21;96.67;100584.28;4167051;28;20037;-71
2021/05/12 05:09:14;;;;;;;6.88;2.03;;;10.80;99.90;;;10.44;95.31;100597.72;4166927;28;20041;-71
2021/05/12 05:11:15;;;;;;;5.63;2.40;;;10.80;99.90;;;10.40;95.85;100591.91;4168421;28;20038;-71
2021/05/12 05:13:16;;;;;;;4.60;2.75;;;10.90;99.90;;;10.41;96.13;100601.50;4167721;28;20485;-71
2021/05/12 05:15:17;;;;;;;3.67;2.00;;;10.90;99.90;;;10.35;96.71;100593.38;4166751;28;20033;-71
2021/05/12 05:17:18;;;;;;;7.40;2.65;;;10.90;99.90;;;10.52;96.20;100595.09;4183445;28;20032;-71
2021/05/12 05:19:19;;;;;;;6.88;2.80;;;11.00;99.90;;;10.52;97.00;100609.13;4174035;28;20399;-71
2021/05/12 05:21:20;;;;;;;5.55;1.73;;;10.90;99.90;;;10.40;97.61;100589.28;4160882;28;20072;-71
2021/05/12 05:23:22;;;;;;;5.55;1.88;;;11.00;99.90;;;10.52;97.80;100601.19;4166735;28;20500;-71
2021/05/12 05:25:23;;;;;;;9.52;3.38;;;11.00;99.90;;;10.54;97.89;100607.13;4167885;28;20032;-71
2021/05/12 05:27:24;;;;;;;5.75;3.05;;;11.00;99.90;;;10.58;96.89;100591.81;4167718;28;20100;-71
2021/05/12 05:29:25;;;;;;;6.30;2.25;;;11.10;99.90;;;10.65;97.04;100603.41;4167718;28;20021;-72
2021/05/12 05:31:26;;;;;;;4.32;1.98;;;11.10;99.90;;;10.59;97.56;100592.66;4167883;28;20026;-72
2021/05/12 05:33:27;;;;;;;7.63;2.30;;;11.10;99.90;;;10.62;97.73;100597.59;4167066;28;20029;-72
2021/05/12 05:35:28;;;;;;;7.90;2.88;;;11.10;99.90;;;10.57;97.70;100589.38;4166519;28;20432;-72
2021/05/12 05:37:29;;;;;;;4.85;1.75;;;11.10;99.90;;;10.71;97.04;100607.22;4166771;28;20025;-72
2021/05/12 05:39:35;;;;;;;6.63;1.98;;;11.10;99.90;;;10.65;97.64;100595.50;4183036;28;20029;-72
2021/05/12 05:41:36;;;;;;;6.57;2.78;;;11.20;99.90;;;10.88;96.33;100607.09;4167264;28;20018;-72
2021/05/12 05:43:37;;;;;;;4.88;2.40;;;11.30;99.90;;;10.82;96.31;100601.63;4170802;28;20030;-72
2021/05/12 05:45:42;;;;;;;8.15;3.20;;;11.30;99.90;;;10.86;96.98;100595.03;4169469;28;20116;-72
2021/05/12 05:47:43;;;;;;;6.05;2.20;;;11.40;99.90;;;10.84;96.50;100599.66;4202683;28;20107;-72
2021/05/12 05:49:46;;;;;;;6.03;2.40;;;11.40;99.90;;;10.99;96.52;100606.78;4170393;28;20033;-71
2021/05/12 05:51:47;;;;;;;5.75;2.17;;;11.40;99.90;;;11.03;96.40;100612.56;4177432;28;20037;-72
2021/05/12 05:53:49;;;;;;;5.60;2.30;;;11.40;99.90;;;10.88;96.16;100596.53;4177475;28;20086;-72
2021/05/12 05:55:50;;;;;;;8.43;3.45;;;11.40;99.90;;;10.98;96.20;100602.50;4173816;28;20029;-72
2021/05/12 05:57:51;;;;;;;10.73;3.17;;;11.50;99.90;;;11.02;95.77;100608.28;4169103;28;20036;-72
2021/05/12 05:59:52;;;;;;;5.85;3.05;;;11.50;99.90;;;11.02;96.60;100603.00;4170476;28;20025;-72
2021/05/12 06:01:55;;;;;;;4.75;2.75;;;11.50;99.90;;;11.02;96.54;100598.53;4177358;28;20028;-72
2021/05/12 06:03:56;;;;;;;6.68;2.35;;;11.50;99.90;;;10.96;97.11;100606.31;4172891;28;20022;-72
2021/05/12 06:05:57;;;;;;;5.05;2.60;;;11.60;99.90;;;11.01;97.89;100601.34;4170755;28;20064;-72
2021/05/12 06:07:58;;;;;;;5.63;2.70;;;11.50;99.90;;;11.08;96.78;100587.31;4170375;28;20026;-72
2021/05/12 06:09:59;;;;;;;8.13;2.42;;;11.50;99.90;;;11.15;97.80;100610.44;4170564;28;20396;-72
2021/05/12 06:11:59;;;;;;;5.65;2.30;;;11.60;99.90;;;11.07;98.07;100587.50;4170281;28;20061;-72
2021/05/12 06:14:00;;;;;;;10.23;3.65;;;11.60;99.90;;;11.10;97.44;100580.09;4170096;28;20037;-72
2021/05/12 06:16:04;;;;;;;11.63;2.80;;;11.70;99.90;;;11.09;96.31;100594.28;4169360;28;20072;-72
2021/05/12 06:18:06;;;;;;;5.70;2.60;;;11.70;99.90;;;11.02;97.57;100598.53;4162666;28;20025;-72
2021/05/12 06:20:08;;;;;;;6.80;2.72;;;11.60;99.90;;;11.00;97.32;100586.50;4167458;28;20033;-72
2021/05/12 06:22:09;;;;;;;7.40;3.25;;;11.60;99.90;;;11.15;97.81;100597.25;4167775;28;20032;-72
2021/05/12 06:24:11;;;;;;;5.35;2.67;;;11.70;99.90;;;11.27;96.80;100602.03;4167907;28;20488;-72
2021/05/12 06:26:15;;;;;;;6.20;3.17;;;11.70;99.90;;;11.03;96.30;100591.44;4169394;28;20029;-72
2021/05/12 06:28:18;;;;;;;;;;;11.70;99.90;;;10.99;97.09;100603.34;4168582;28;20462;-72
2021/05/12 06:30:19;;;;;;;7.00;2.35;;;11.70;99.90;;;11.13;97.11;100607.16;4170114;28;20352;-71
2021/05/12 06:32:20;;;;;;;5.75;2.22;;;11.70;99.90;;;11.22;97.36;100595.59;4169736;28;20033;-71
2021/05/12 06:34:21;;;;;;;5.78;2.60;;;11.80;99.90;;;11.15;98.11;100599.88;4168414;28;20056;-70
2021/05/12 06:36:22;;;;;;;8.02;2.63;;;11.80;99.90;;;11.09;98.81;100593.44;4165725;28;20045;-71
2021/05/12 06:38:23;;;;;;;4.60;2.70;;;11.80;99.90;;;11.02;99.14;100587.97;4169327;28;20045;-71
2021/05/12 06:40:24;;;;;;;7.30;3.03;;;11.80;99.90;;;11.17;98.83;100590.00;4166090;28;20048;-71
2021/05/12 06:42:25;;;;;;;6.75;2.63;;;11.90;99.90;;;11.31;98.92;100598.09;4195326;28;20020;-72
2021/05/12 06:44:26;;;;;;;4.15;2.97;;;11.80;99.90;;;11.34;98.81;100597.78;4168690;28;20032;-71
2021/05/12 06:46:27;;;;;;;8.23;2.90;;;11.90;99.90;;;11.31;99.04;100599.91;4169019;28;20063;-71
2021/05/12 06:48:28;;;;;;;6.68;3.00;;;11.90;99.90;;;11.28;99.45;100594.94;4169479;28;20029;-71
2021/05/12 06:50:29;;;;;;;6.78;2.85;;;12.00;99.90;;;11.33;99.63;100600.56;4169612;28;20079;-72
2021/05/12 06:52:29;;;;;;;7.90;3.05;;;12.00;99.90;;;11.35;100.00;100598.59;4169537;28;20032;-72
2021/05/12 06:54:30;;;;;;;5.03;2.38;;;12.00;99.90;;;11.55;98.10;100589.34;4168515;28;20026;-72
2021/05/12 06:56:31;;;;;;;5.80;2.78;;;12.10;99.90;;;11.47;97.37;100584.03;4158815;28;20092;-72
2021/05/12 06:58:34;;;;;;;4.65;2.30;;;12.10;99.90;;;11.42;98.25;100600.41;4149062;28;20107;-72
2021/05/12 07:00:35;;;;;;;5.15;2.80;;;12.10;99.90;;;11.45;98.88;100589.50;4169654;28;20030;-72
2021/05/12 07:02:36;;;;;;;6.82;2.92;;;12.10;99.90;;;11.46;99.12;100574.50;4169669;28;20044;-72
2021/05/12 07:04:37;;;;;;;7.45;3.10;;;12.20;99.90;;;11.54;99.05;100570.03;4168671;28;20033;-72
2021/05/12 07:06:38;;;;;;;6.38;3.00;;;12.20;99.90;;;11.61;98.70;100578.13;4178865;28;20716;-72
2021/05/12 07:08:39;;;;;;;7.40;3.38;;;12.30;99.90;;;11.55;99.19;100558.47;4169465;28;20037;-72
2021/05/12 07:10:39;;;;;;;9.40;2.88;;;12.40;99.90;;;11.80;98.39;100571.69;4168736;28;20060;-72
2021/05/12 07:12:40;;;;;;;6.07;2.50;;;12.50;99.90;;;11.91;97.18;100579.25;4159908;28;20044;-72
2021/05/12 07:14:41;;;;;;;4.45;2.53;;;12.60;99.90;;;11.83;96.72;100561.59;4168190;28;20079;-72
2021/05/12 07:16:42;;;;;;;5.13;2.78;;;12.70;99.90;;;11.83;96.81;100572.16;4184960;28;20036;-73
2021/05/12 07:18:43;;;;;;;3.53;2.50;;;12.60;99.90;;;11.80;97.13;100563.75;4184712;28;20053;-72
2021/05/12 07:20:45;;;;;;;5.05;2.45;;;12.70;99.90;;;11.96;97.40;100572.47;4159586;28;20021;-72
2021/05/12 07:22:46;;;;;;;5.15;2.33;;;12.70;99.90;;;11.91;96.12;100579.25;4167964;28;20026;-72
2021/05/12 07:24:47;;;;;;;4.18;2.08;;;12.70;99.90;;;11.93;96.47;100577.25;4168306;28;20033;-72
2021/05/12 07:26:50;;;;;;;9.80;3.42;;;12.70;99.90;;;11.95;96.94;100568.16;4166892;28;20021;-71
2021/05/12 07:28:52;;;;;;;6.78;2.80;;;12.70;99.90;;;12.05;96.14;100566.16;4166485;28;20029;-71
2021/05/12 07:30:52;;;;;;;7.82;3.47;;;12.80;99.90;;;12.12;96.60;100567.16;4160795;28;20028;-70
2021/05/12 07:32:54;;;;;;;5.72;2.80;;;12.80;99.90;;;12.12;96.36;100566.31;4165098;28;20393;-70
2021/05/12 07:34:55;;;;;;;6.55;2.60;;;12.80;99.90;;;11.86;96.89;100558.59;4166100;28;20416;-70
2021/05/12 07:36:56;;;;;;;5.18;2.53;;;12.80;99.90;;;11.97;97.33;100574.13;4168431;28;20026;-70
2021/05/12 07:38:57;;;;;;;4.38;2.38;;;12.70;99.90;;;11.84;97.81;100573.81;4168211;28;20044;-70
2021/05/12 07:41:00;;;;;;;5.85;3.40;;;12.60;99.90;;;11.85;97.89;100559.63;4169050;28;20033;-71
2021/05/12 07:43:06;;;;;;;5.57;2.60;;;12.50;99.90;;;11.94;98.18;100571.81;4168315;28;20053;-70
2021/05/12 07:45:07;;;;;;;5.30;3.00;;;12.60;99.90;;;12.04;97.10;100569.78;4168587;28;20044;-71
2021/05/12 07:47:09;;;;;;;6.10;2.28;;;12.60;99.90;;;11.95;97.09;100557.59;4168476;28;20029;-71
2021/05/12 07:49:10;;;;;;;3.80;2.72;;;12.60;99.90;;;11.98;96.99;100546.69;4168489;28;20443;-71
2021/05/12 07:51:11;;;;;;;4.75;2.45;;;12.60;99.90;;;12.09;96.83;100551.63;4167691;28;20021;-73
2021/05/12 07:53:12;;;;;;;4.03;2.28;;;12.70;99.90;;;12.08;96.98;100551.78;4158112;28;20076;-72
2021/05/12 07:55:13;;;;;;;5.47;2.78;;;12.70;99.90;;;12.37;96.13;100544.06;4168420;28;20032;-72
2021/05/12 07:57:15;;;;;;;6.43;3.03;;;13.00;99.90;;;12.61;95.71;100532.53;4168345;28;20025;-72
2021/05/12 07:59:17;;;;;;;7.20;2.97;;;13.30;99.90;;;12.99;95.24;100528.97;4168171;28;20549;-72
2021/05/12 08:01:42;;;;;;;5.22;2.50;;;13.80;99.90;;;13.39;94.31;100519.06;4168459;28;20025;-72
2021/05/12 08:03:43;;;;;;;3.70;1.90;;;14.30;99.90;;;13.61;93.74;100531.47;4164385;28;20058;-73
2021/05/12 08:05:44;;;;;;;3.00;1.90;;;14.80;99.90;;;13.69;92.80;100526.06;4165724;28;20476;-71
2021/05/12 08:07:45;;;;;;;5.45;2.80;;;15.00;99.90;;;13.79;92.71;100519.53;4168645;28;20085;-72
2021/05/12 08:09:46;;;;;;;6.97;2.60;;;15.10;99.90;;;13.77;90.75;100518.03;4168680;28;20041;-72
2021/05/12 08:11:47;;;;;;;6.78;2.25;;;15.20;99.90;;;13.87;91.25;100513.28;4168846;28;20026;-72
2021/05/12 08:13:50;;;;;;;6.50;3.13;;;15.20;99.90;;;13.81;90.32;100500.75;4167082;28;20029;-72
2021/05/12 08:15:51;;;;;;;5.82;3.13;;;15.20;99.90;;;13.59;90.08;100509.63;4167521;28;20063;-76
2021/05/12 08:17:53;;;;;;;7.05;2.60;;;15.10;99.90;;;13.52;91.51;100508.69;4168437;28;20439;-74
2021/05/12 08:19:56;;;;;;;6.30;2.53;;;14.90;99.90;;;13.37;93.30;100506.03;4168699;28;20028;-73
2021/05/12 08:21:57;;;;;;;6.38;2.85;;;14.80;99.90;;;13.24;93.56;100497.84;4168565;28;20029;-72
2021/05/12 08:23:58;;;;;;;4.60;2.55;;;14.60;99.90;;;13.48;92.37;100502.09;4165956;28;20030;-72
2021/05/12 08:25:59;;;;;;;5.45;2.22;;;14.60;99.90;;;13.60;91.71;100493.53;4167629;28;20040;-72
2021/05/12 08:28:01;;;;;;;7.43;3.15;;;14.70;99.90;;;13.59;90.87;100488.44;4166536;28;20032;-72